createdAt,value
2023-03-25T00:01:48.028Z,99813.41
2023-03-25T00:04:18.760Z,99818.66
2023-03-25T00:06:49.185Z,99811.41
2023-03-25T00:09:20.826Z,99846.47
2023-03-25T00:11:53.169Z,99873.09
2023-03-25T00:14:24.224Z,99826.31
2023-03-25T00:16:54.530Z,99808.56
2023-03-25T00:19:26.051Z,99815.03
2023-03-25T00:21:56.462Z,99816.66
2023-03-25T00:24:28.240Z,99811.00
2023-03-25T00:26:57.912Z,99828.72
2023-03-25T00:29:29.048Z,99876.69
2023-03-25T00:31:59.884Z,99914.22
2023-03-25T00:34:29.912Z,99903.31
2023-03-25T00:37:00.148Z,99879.13
2023-03-25T00:39:32.609Z,99879.53
2023-03-25T00:42:03.027Z,99880.72
2023-03-25T00:44:35.932Z,99873.06
2023-03-25T00:47:06.392Z,99870.25
2023-03-25T00:49:37.037Z,99871.06
2023-03-25T00:52:07.205Z,99886.78
2023-03-25T00:54:39.808Z,99896.88
2023-03-25T00:57:10.111Z,99881.56
2023-03-25T00:59:40.513Z,99885.97
2023-03-25T01:02:10.938Z,99886.38
2023-03-25T01:04:42.780Z,99881.13
2023-03-25T01:07:16.744Z,99871.06
2023-03-25T01:09:50.004Z,99866.66
2023-03-25T01:12:21.250Z,99873.09
2023-03-25T01:14:51.382Z,99885.16
2023-03-25T01:17:21.023Z,99879.94
2023-03-25T01:19:51.331Z,99887.19
2023-03-25T01:22:21.646Z,99886.78
2023-03-25T01:24:54.073Z,99900.50
2023-03-25T01:27:24.865Z,99892.44
2023-03-25T01:29:55.570Z,99902.91
2023-03-25T01:32:25.822Z,99894.06
2023-03-25T01:34:56.031Z,99877.94
2023-03-25T01:37:27.576Z,99888.41
2023-03-25T01:39:59.549Z,99885.97
2023-03-25T01:42:29.895Z,99882.78
2023-03-25T01:45:25.491Z,99873.47
2023-03-25T01:48:11.915Z,99874.69
2023-03-25T01:50:47.376Z,99877.94
2023-03-25T01:53:19.420Z,99870.25
2023-03-25T01:55:55.036Z,99869.84
2023-03-25T01:58:29.359Z,99869.06
2023-03-25T02:01:01.781Z,99873.09
2023-03-25T02:03:37.852Z,99869.47
2023-03-25T02:06:17.338Z,99876.72
2023-03-25T02:08:47.391Z,99868.66
2023-03-25T02:11:19.210Z,99859.78
2023-03-25T02:13:50.043Z,99860.59
2023-03-25T02:16:35.324Z,99850.91
2023-03-25T02:19:44.956Z,99874.69
2023-03-25T02:23:04.290Z,99869.47
2023-03-25T02:26:14.155Z,99877.09
2023-03-25T02:28:57.654Z,99873.91
2023-03-25T02:32:03.556Z,99884.38
2023-03-25T02:35:14.390Z,99893.66
2023-03-25T02:38:38.757Z,99908.56
2023-03-25T02:41:16.735Z,99906.53
2023-03-25T02:43:58.019Z,99912.19
2023-03-25T02:46:31.855Z,99908.53
2023-03-25T02:49:10.935Z,99919.81
2023-03-25T02:51:49.666Z,99923.84
2023-03-25T02:54:26.580Z,99929.06
2023-03-25T02:57:00.298Z,99936.72
2023-03-25T02:59:38.688Z,99936.31
2023-03-25T03:02:12.785Z,99946.41
2023-03-25T03:04:52.593Z,99928.69
2023-03-25T03:07:31.066Z,99921.44
2023-03-25T03:10:19.826Z,99925.47
2023-03-25T03:13:06.490Z,99912.16
2023-03-25T03:15:51.632Z,99901.69
2023-03-25T03:18:42.792Z,99904.50
2023-03-25T03:21:24.959Z,99900.47
2023-03-25T03:24:02.577Z,99902.47
2023-03-25T03:26:45.326Z,99917.78
2023-03-25T03:29:21.682Z,99931.50
2023-03-25T03:32:05.851Z,99961.72
2023-03-25T03:34:47.019Z,99961.28
2023-03-25T03:37:23.108Z,99977.34
2023-03-25T03:39:57.438Z,99968.44
2023-03-25T03:42:37.228Z,99951.94
2023-03-25T03:45:15.126Z,99951.09
2023-03-25T03:47:51.647Z,99957.94
2023-03-25T03:50:27.434Z,99960.75
2023-03-25T03:53:10.665Z,99960.75
2023-03-25T03:55:45.991Z,99961.56
2023-03-25T03:58:25.868Z,99964.81
2023-03-25T04:01:05.839Z,99943.06
2023-03-25T04:03:45.710Z,99960.38
2023-03-25T04:06:24.924Z,99951.94
2023-03-25T04:09:05.064Z,99947.91
2023-03-25T04:11:42.176Z,99955.16
2023-03-25T04:14:16.730Z,99950.31
2023-03-25T04:16:47.566Z,99970.06
2023-03-25T04:19:18.695Z,99969.25
2023-03-25T04:21:50.233Z,99952.31
2023-03-25T04:24:20.881Z,99952.72
2023-03-25T04:26:53.479Z,99966.81
2023-03-25T04:29:26.025Z,99968.00
2023-03-25T04:31:57.535Z,99962.34
2023-03-25T04:34:28.267Z,99955.09
2023-03-25T04:36:58.589Z,99955.88
2023-03-25T04:39:30.192Z,99958.31
2023-03-25T04:42:02.368Z,99965.16
2023-03-25T04:44:39.448Z,99961.50
2023-03-25T04:47:16.710Z,99964.31
2023-03-25T04:49:47.225Z,99968.75
2023-03-25T04:52:19.236Z,99974.00
2023-03-25T04:54:49.627Z,99967.16
2023-03-25T04:57:20.716Z,99973.63
2023-03-25T04:59:52.445Z,99973.22
2023-03-25T05:02:24.407Z,99975.66
2023-03-25T05:04:54.784Z,99970.81
2023-03-25T05:07:25.022Z,99971.59
2023-03-25T05:09:55.272Z,99974.84
2023-03-25T05:12:25.202Z,99988.94
2023-03-25T05:14:57.472Z,99999.84
2023-03-25T05:17:27.560Z,99994.59
2023-03-25T05:19:57.600Z,99991.78
2023-03-25T05:22:27.607Z,99995.41
2023-03-25T05:24:57.713Z,100003.44
2023-03-25T05:27:28.792Z,99990.16
2023-03-25T05:30:00.570Z,99998.22
2023-03-25T05:32:33.688Z,99994.97
2023-03-25T05:35:05.309Z,99993.78
2023-03-25T05:37:35.830Z,99997.78
2023-03-25T05:40:14.895Z,99995.34
2023-03-25T05:42:49.343Z,99980.06
2023-03-25T05:45:21.915Z,99982.50
2023-03-25T05:47:52.534Z,99973.63
2023-03-25T05:50:23.295Z,99971.22
2023-03-25T05:52:53.252Z,99970.81
2023-03-25T05:55:25.898Z,99975.69
2023-03-25T05:57:57.322Z,99968.44
2023-03-25T06:00:30.811Z,99973.66
2023-03-25T06:03:01.726Z,99977.72
2023-03-25T06:05:32.046Z,99974.50
2023-03-25T06:08:02.493Z,99967.25
2023-03-25T06:10:33.750Z,99967.66
2023-03-25T06:13:03.932Z,99965.25
2023-03-25T06:15:39.752Z,99962.03
2023-03-25T06:18:10.910Z,99956.00
2023-03-25T06:20:40.708Z,99956.41
2023-03-25T06:23:10.720Z,99950.38
2023-03-25T06:25:40.504Z,99953.63
2023-03-25T06:28:10.789Z,99961.69
2023-03-25T06:30:43.047Z,99969.75
2023-03-25T06:33:14.385Z,99968.56
2023-03-25T06:36:04.721Z,99949.59
2023-03-25T06:38:36.525Z,99924.63
2023-03-25T06:41:07.540Z,99917.78
2023-03-25T06:43:38.151Z,99925.47
2023-03-25T06:46:11.565Z,99931.88
2023-03-25T06:48:42.300Z,99949.22
2023-03-25T06:51:12.756Z,99969.81
2023-03-25T06:53:43.025Z,99978.66
2023-03-25T06:56:13.527Z,99966.94
2023-03-25T06:58:43.833Z,99961.31
2023-03-25T07:01:16.208Z,99963.31
2023-03-25T07:03:47.788Z,99971.78
2023-03-25T07:06:22.672Z,99986.31
2023-03-25T07:08:53.314Z,99993.56
2023-03-25T07:11:30.248Z,100000.81
2023-03-25T07:14:00.812Z,99993.56
2023-03-25T07:16:33.156Z,100006.44
2023-03-25T07:19:03.750Z,100010.50
2023-03-25T07:21:34.115Z,100007.25
2023-03-25T07:24:04.165Z,99999.59
2023-03-25T07:26:34.301Z,100007.69
2023-03-25T07:29:04.459Z,100007.28
2023-03-25T07:31:37.221Z,100003.66
2023-03-25T07:34:09.204Z,99999.22
2023-03-25T07:36:39.159Z,100004.88
2023-03-25T07:39:09.548Z,100004.09
2023-03-25T07:41:39.399Z,100004.09
2023-03-25T07:44:09.830Z,99998.47
2023-03-25T07:46:42.101Z,99999.66
2023-03-25T07:49:12.176Z,99998.06
2023-03-25T07:51:42.598Z,99995.25
2023-03-25T07:54:12.690Z,99998.88
2023-03-25T07:56:43.127Z,100002.94
2023-03-25T07:59:13.496Z,100000.50
2023-03-25T08:01:45.467Z,100000.13
2023-03-25T08:04:16.149Z,100000.13
2023-03-25T08:06:46.398Z,99999.72
2023-03-25T08:09:16.956Z,100000.53
2023-03-25T08:11:47.388Z,99999.72
2023-03-25T08:14:17.783Z,99999.72
2023-03-25T08:16:50.310Z,99999.72
2023-03-25T08:19:21.010Z,99989.25
2023-03-25T08:21:51.452Z,99998.50
2023-03-25T08:24:21.364Z,99998.94
2023-03-25T08:26:52.560Z,100001.75
2023-03-25T08:29:22.832Z,99999.72
2023-03-25T08:31:55.341Z,100001.34
2023-03-25T08:34:28.626Z,100012.22
2023-03-25T08:37:01.716Z,100015.88
2023-03-25T08:39:37.509Z,100011.88
2023-03-25T08:42:08.493Z,100011.88
2023-03-25T08:44:38.789Z,100009.47
2023-03-25T08:47:11.590Z,100013.50
2023-03-25T08:49:41.936Z,100009.47
2023-03-25T08:52:12.005Z,100013.06
2023-03-25T08:54:42.492Z,100006.22
2023-03-25T08:57:12.716Z,100003.00
2023-03-25T08:59:45.182Z,100008.25
2023-03-25T09:02:17.488Z,100007.03
2023-03-25T09:04:50.095Z,100007.03
2023-03-25T09:07:20.173Z,100012.69
2023-03-25T09:09:50.773Z,100013.06
2023-03-25T09:12:21.078Z,100013.91
2023-03-25T09:14:51.396Z,100007.44
2023-03-25T09:17:23.577Z,100007.44
2023-03-25T09:19:54.509Z,100011.06
2023-03-25T09:22:26.108Z,100011.88
2023-03-25T09:24:56.202Z,100003.81
2023-03-25T09:27:29.495Z,100004.59
2023-03-25T09:30:00.432Z,100001.78
2023-03-25T09:32:32.309Z,100001.78
2023-03-25T09:35:02.665Z,99997.75
2023-03-25T09:37:32.416Z,99991.25
2023-03-25T09:40:02.772Z,99989.63
2023-03-25T09:43:05.618Z,99989.25
2023-03-25T09:45:42.467Z,99989.63
2023-03-25T09:48:31.703Z,99986.44
2023-03-25T09:51:07.747Z,99977.53
2023-03-25T09:53:46.196Z,99974.72
2023-03-25T09:56:20.568Z,99974.72
2023-03-25T09:58:54.430Z,99980.38
2023-03-25T10:01:42.242Z,99967.47
2023-03-25T10:04:49.892Z,99967.47
2023-03-25T10:07:43.396Z,99969.06
2023-03-25T10:10:26.215Z,99964.63
2023-03-25T10:13:11.770Z,99966.25
2023-03-25T10:15:56.761Z,99963.47
2023-03-25T10:18:58.227Z,99958.63
2023-03-25T10:21:42.422Z,99967.50
2023-03-25T10:24:24.152Z,99963.88
2023-03-25T10:27:00.911Z,99960.25
2023-03-25T10:29:39.456Z,99958.63
2023-03-25T10:32:18.710Z,99958.63
2023-03-25T10:34:56.449Z,99957.81
2023-03-25T10:37:34.040Z,99962.66
2023-03-25T10:40:21.552Z,99962.66
2023-03-25T10:43:14.386Z,99958.22
2023-03-25T10:45:47.600Z,99958.63
2023-03-25T10:48:25.621Z,99960.66
2023-03-25T10:51:04.674Z,99948.53
2023-03-25T10:53:37.444Z,99948.94
2023-03-25T10:56:11.875Z,99945.69
2023-03-25T10:58:45.286Z,99951.34
2023-03-25T11:01:18.887Z,99952.16
2023-03-25T11:03:54.872Z,99953.78
2023-03-25T11:06:30.805Z,99954.19
2023-03-25T11:09:24.697Z,99950.94
2023-03-25T11:11:56.417Z,99957.41
2023-03-25T11:14:29.224Z,99954.97
2023-03-25T11:17:04.385Z,99956.56
2023-03-25T11:19:42.783Z,99957.78
2023-03-25T11:22:19.600Z,99963.03
2023-03-25T11:24:57.457Z,99955.00
2023-03-25T11:27:31.429Z,99950.97
2023-03-25T11:30:16.763Z,99942.88
2023-03-25T11:32:47.311Z,99944.47
2023-03-25T11:35:24.811Z,99942.47
2023-03-25T11:38:00.850Z,99945.69
2023-03-25T11:40:34.077Z,99937.59
2023-03-25T11:43:05.197Z,99935.16
2023-03-25T11:45:39.536Z,99936.38
2023-03-25T11:48:18.748Z,99941.63
2023-03-25T11:50:53.267Z,99940.41
2023-03-25T11:53:28.272Z,99943.25
2023-03-25T11:56:07.200Z,99933.56
2023-03-25T11:58:42.175Z,99937.97
2023-03-25T12:01:28.590Z,99934.38
2023-03-25T12:04:15.885Z,99934.38
2023-03-25T12:07:02.475Z,99933.16
2023-03-25T12:09:34.065Z,99940.81
2023-03-25T12:12:35.773Z,99939.19
2023-03-25T12:15:29.423Z,99936.78
2023-03-25T12:18:20.687Z,99936.78
2023-03-25T12:21:08.019Z,99938.81
2023-03-25T12:23:53.982Z,99941.63
2023-03-25T12:26:31.178Z,99940.41
2023-03-25T12:29:36.369Z,99934.75
2023-03-25T12:32:27.279Z,99938.81
2023-03-25T12:35:22.818Z,99930.31
2023-03-25T12:38:21.848Z,99931.94
2023-03-25T12:41:16.056Z,99928.75
2023-03-25T12:44:03.179Z,99928.75
2023-03-25T12:47:14.652Z,99934.78
2023-03-25T12:50:18.761Z,99938.81
2023-03-25T12:53:04.870Z,99936.41
2023-03-25T12:55:53.826Z,99943.69
2023-03-25T12:58:56.476Z,99939.22
2023-03-25T13:01:40.846Z,99946.91
2023-03-25T13:04:31.542Z,99949.75
2023-03-25T13:07:08.036Z,99952.56
2023-03-25T13:09:57.646Z,99952.56
2023-03-25T13:12:37.420Z,99951.34
2023-03-25T13:15:26.405Z,99954.97
2023-03-25T13:18:08.125Z,99961.84
2023-03-25T13:20:43.246Z,99953.78
2023-03-25T13:23:22.327Z,99954.56
2023-03-25T13:25:58.588Z,99967.09
2023-03-25T13:28:38.942Z,99964.25
2023-03-25T13:31:15.201Z,99963.84
2023-03-25T13:33:55.246Z,99960.22
2023-03-25T13:36:33.613Z,99961.88
2023-03-25T13:39:14.515Z,99967.50
2023-03-25T13:41:52.159Z,99957.78
2023-03-25T13:44:30.239Z,99959.41
2023-03-25T13:47:07.900Z,99957.41
2023-03-25T13:49:46.978Z,99956.16
2023-03-25T13:52:18.489Z,99960.22
2023-03-25T13:54:55.226Z,99958.22
2023-03-25T13:58:17.046Z,99950.53
2023-03-25T14:01:22.310Z,99960.63
2023-03-25T14:04:26.009Z,99952.16
2023-03-25T14:07:57.830Z,99967.91
2023-03-25T14:10:53.617Z,99960.25
2023-03-25T14:13:30.597Z,99957.41
2023-03-25T14:16:08.858Z,99964.28
2023-03-25T14:18:45.639Z,99967.91
2023-03-25T14:21:30.937Z,99972.34
2023-03-25T14:24:11.814Z,99966.69
2023-03-25T14:26:52.551Z,99975.16
2023-03-25T14:29:37.440Z,99979.59
2023-03-25T14:32:37.997Z,99980.81
2023-03-25T14:35:49.426Z,99982.03
2023-03-25T14:38:38.941Z,99990.13
2023-03-25T14:41:09.647Z,99990.50
2023-03-25T14:43:48.152Z,99991.31
2023-03-25T14:46:24.913Z,99996.97
2023-03-25T14:49:21.515Z,99998.97
2023-03-25T14:51:59.018Z,99997.34
2023-03-25T14:54:37.761Z,100007.84
2023-03-25T14:57:13.232Z,100009.06
2023-03-25T14:59:51.014Z,100009.47
2023-03-25T15:02:28.959Z,100015.50
2023-03-25T15:05:04.049Z,100015.94
2023-03-25T15:07:50.293Z,100015.50
2023-03-25T15:10:31.090Z,100032.06
2023-03-25T15:13:08.634Z,100033.66
2023-03-25T15:16:02.427Z,100038.09
2023-03-25T15:19:09.877Z,100046.16
2023-03-25T15:22:20.823Z,100058.66
2023-03-25T15:25:01.823Z,100059.47
2023-03-25T15:27:54.545Z,100056.19
2023-03-25T15:31:14.171Z,100060.22
2023-03-25T15:34:26.408Z,100066.25
2023-03-25T15:37:46.089Z,100065.44
2023-03-25T15:40:32.395Z,100070.66
2023-03-25T15:44:01.352Z,100075.50
2023-03-25T15:47:13.281Z,100076.28
2023-03-25T15:50:29.780Z,100081.13
2023-03-25T15:53:48.683Z,100079.88
2023-03-25T15:56:23.945Z,100093.63
2023-03-25T15:59:05.999Z,100085.16
2023-03-25T16:01:39.701Z,100099.22
2023-03-25T16:04:19.650Z,100095.59
2023-03-25T16:06:57.631Z,100104.47
2023-03-25T16:09:32.700Z,100111.69
2023-03-25T16:12:04.089Z,100112.09
2023-03-25T16:14:36.984Z,100100.41
2023-03-25T16:17:10.223Z,100107.25
2023-03-25T16:19:45.952Z,100114.09
2023-03-25T16:22:32.391Z,100122.16
2023-03-25T16:25:07.187Z,100121.75
2023-03-25T16:27:41.184Z,100125.75
2023-03-25T16:30:25.349Z,100129.78
2023-03-25T16:32:55.911Z,100129.38
2023-03-25T16:35:30.457Z,100134.22
2023-03-25T16:38:04.891Z,100133.38
2023-03-25T16:40:41.481Z,100135.41
2023-03-25T16:43:21.710Z,100134.59
2023-03-25T16:45:54.312Z,100143.03
2023-03-25T16:48:30.321Z,100147.06
2023-03-25T16:51:08.081Z,100144.25
2023-03-25T16:53:43.177Z,100153.94
2023-03-25T16:56:27.779Z,100162.41
2023-03-25T16:59:05.030Z,100153.94
2023-03-25T17:01:39.758Z,100164.81
2023-03-25T17:04:19.113Z,100166.78
2023-03-25T17:06:54.961Z,100168.81
2023-03-25T17:09:34.770Z,100173.22
2023-03-25T17:12:11.372Z,100177.22
2023-03-25T17:14:46.534Z,100184.06
2023-03-25T17:17:36.237Z,100186.06
2023-03-25T17:20:11.705Z,100196.13
2023-03-25T17:22:42.278Z,100206.63
2023-03-25T17:25:28.658Z,100201.78
2023-03-25T17:28:02.057Z,100200.56
2023-03-25T17:30:45.732Z,100209.81
2023-03-25T17:33:21.685Z,100222.28
2023-03-25T17:35:57.992Z,100228.34
2023-03-25T17:38:34.531Z,100226.34
2023-03-25T17:41:09.665Z,100232.78
2023-03-25T17:43:44.975Z,100233.97
2023-03-25T17:46:21.706Z,100238.81
2023-03-25T17:48:53.951Z,100234.75
2023-03-25T17:51:35.602Z,100240.38
2023-03-25T17:54:06.006Z,100240.38
2023-03-25T17:56:40.543Z,100246.84
2023-03-25T17:59:16.951Z,100248.03
2023-03-25T18:01:50.391Z,100254.88
2023-03-25T18:04:22.599Z,100261.34
2023-03-25T18:06:53.450Z,100261.34
2023-03-25T18:09:27.006Z,100263.34
2023-03-25T18:12:00.467Z,100271.81
2023-03-25T18:14:31.141Z,100262.91
2023-03-25T18:17:01.524Z,100264.94
2023-03-25T18:19:34.336Z,100264.94
2023-03-25T18:22:13.860Z,100261.28
2023-03-25T18:24:49.897Z,100254.44
2023-03-25T18:27:27.794Z,100261.28
2023-03-25T18:30:07.617Z,100255.19
2023-03-25T18:32:38.210Z,100261.66
2023-03-25T18:35:09.544Z,100259.25
2023-03-25T18:37:39.903Z,100260.03
2023-03-25T18:40:24.318Z,100265.69
2023-03-25T18:42:56.882Z,100270.53
2023-03-25T18:45:29.023Z,100274.53
2023-03-25T18:47:59.155Z,100278.56
2023-03-25T18:50:33.752Z,100278.56
2023-03-25T18:53:04.455Z,100280.56
2023-03-25T18:55:37.708Z,100285.41
2023-03-25T18:58:14.701Z,100283.78
2023-03-25T19:00:45.050Z,100290.59
2023-03-25T19:03:15.835Z,100294.63
2023-03-25T19:05:46.924Z,100309.91
2023-03-25T19:08:21.393Z,100302.66
2023-03-25T19:10:51.574Z,100306.66
2023-03-25T19:13:23.462Z,100315.13
2023-03-25T19:15:53.676Z,100323.56
2023-03-25T19:18:27.861Z,100315.53
2023-03-25T19:20:58.439Z,100323.97
2023-03-25T19:23:29.325Z,100326.00
2023-03-25T19:26:01.462Z,100322.34
2023-03-25T19:28:34.240Z,100326.00
2023-03-25T19:31:04.840Z,100327.19
2023-03-25T19:33:34.983Z,100330.38
2023-03-25T19:36:05.634Z,100333.19
2023-03-25T19:38:36.172Z,100339.66
2023-03-25T19:41:10.108Z,100334.44
2023-03-25T19:43:42.638Z,100336.41
2023-03-25T19:46:13.096Z,100327.16
2023-03-25T19:48:43.156Z,100326.34
2023-03-25T19:51:13.038Z,100334.00
2023-03-25T19:53:43.550Z,100331.19
2023-03-25T19:56:14.472Z,100331.53
2023-03-25T19:58:46.817Z,100333.56
2023-03-25T20:01:17.450Z,100337.56
2023-03-25T20:03:48.011Z,100337.56
2023-03-25T20:06:18.422Z,100336.78
2023-03-25T20:08:48.546Z,100339.59
2023-03-25T20:11:18.793Z,100342.41
2023-03-25T20:13:51.204Z,100339.59
2023-03-25T20:16:22.043Z,100347.22
2023-03-25T20:18:52.504Z,100346.44
2023-03-25T20:21:25.179Z,100352.06
2023-03-25T20:23:55.222Z,100347.63
2023-03-25T20:26:25.573Z,100354.06
2023-03-25T20:28:57.952Z,100347.63
2023-03-25T20:31:29.012Z,100360.88
2023-03-25T20:33:59.107Z,100360.88
2023-03-25T20:36:29.876Z,100352.81
2023-03-25T20:39:04.268Z,100354.84
2023-03-25T20:41:35.240Z,100351.19
2023-03-25T20:44:08.218Z,100355.22
2023-03-25T20:46:38.798Z,100362.47
2023-03-25T20:49:10.390Z,100355.22
2023-03-25T20:51:42.137Z,100348.78
2023-03-25T20:54:12.793Z,100351.59
2023-03-25T20:56:42.509Z,100351.59
2023-03-25T20:59:17.113Z,100354.78
2023-03-25T21:01:50.849Z,100361.59
2023-03-25T21:04:21.465Z,100354.38
2023-03-25T21:06:52.411Z,100357.19
2023-03-25T21:09:22.493Z,100358.00
2023-03-25T21:11:52.753Z,100350.72
2023-03-25T21:14:31.179Z,100355.56
2023-03-25T21:17:01.644Z,100368.84
2023-03-25T21:19:31.976Z,100362.41
2023-03-25T21:22:02.314Z,100352.31
2023-03-25T21:24:34.689Z,100360.34
2023-03-25T21:27:05.639Z,100361.94
2023-03-25T21:29:38.004Z,100361.06
2023-03-25T21:32:11.335Z,100355.41
2023-03-25T21:34:41.861Z,100353.38
2023-03-25T21:37:12.320Z,100354.91
2023-03-25T21:39:42.025Z,100359.31
2023-03-25T21:42:12.245Z,100351.63
2023-03-25T21:44:44.260Z,100353.66
2023-03-25T21:47:14.907Z,100352.03
2023-03-25T21:49:45.001Z,100353.22
2023-03-25T21:52:15.203Z,100354.03
2023-03-25T21:54:45.849Z,100345.97
2023-03-25T21:57:16.257Z,100354.41
2023-03-25T21:59:48.282Z,100353.59
2023-03-25T22:02:21.438Z,100357.63
2023-03-25T22:04:51.878Z,100350.34
2023-03-25T22:07:22.179Z,100356.38
2023-03-25T22:09:52.848Z,100355.94
2023-03-25T22:12:23.350Z,100354.72
2023-03-25T22:14:55.738Z,100355.09
2023-03-25T22:17:26.451Z,100354.66
2023-03-25T22:19:57.266Z,100357.06
2023-03-25T22:22:27.067Z,100364.25
2023-03-25T22:24:56.954Z,100359.00
2023-03-25T22:27:27.334Z,100360.19
2023-03-25T22:29:59.202Z,100363.84
2023-03-25T22:32:29.167Z,100366.66
2023-03-25T22:34:59.604Z,100373.09
2023-03-25T22:37:29.564Z,100369.47
2023-03-25T22:39:59.910Z,100373.09
2023-03-25T22:42:30.061Z,100374.72
2023-03-25T22:45:02.098Z,100370.69
2023-03-25T22:47:32.555Z,100377.13
2023-03-25T22:50:02.960Z,100372.34
2023-03-25T22:52:33.201Z,100367.50
2023-03-25T22:55:04.153Z,100373.97
2023-03-25T22:57:34.521Z,100371.53
2023-03-25T23:00:13.130Z,100372.38
2023-03-25T23:02:43.687Z,100370.75
2023-03-25T23:05:15.165Z,100371.53
2023-03-25T23:07:45.817Z,100365.91
2023-03-25T23:10:16.890Z,100366.75
2023-03-25T23:12:46.738Z,100372.38
2023-03-25T23:15:18.469Z,100362.72
2023-03-25T23:17:49.001Z,100358.28
2023-03-25T23:20:19.688Z,100370.34
2023-03-25T23:22:50.113Z,100365.91
2023-03-25T23:25:20.797Z,100369.94
2023-03-25T23:27:51.049Z,100359.03
2023-03-25T23:30:24.317Z,100368.31
2023-03-25T23:32:54.085Z,100370.31
2023-03-25T23:35:24.463Z,100366.69
2023-03-25T23:37:54.535Z,100363.88
2023-03-25T23:40:24.761Z,100370.31
2023-03-25T23:42:55.147Z,100363.88
2023-03-25T23:45:30.421Z,100361.06
2023-03-25T23:48:00.789Z,100353.81
2023-03-25T23:50:31.880Z,100357.41
2023-03-25T23:53:02.068Z,100349.81
2023-03-25T23:55:32.547Z,100352.63
2023-03-25T23:58:03.569Z,100355.44
